sensor_id;sensor_type;location;lat;lon;timestamp;P1;durP1;ratioP1;P2;durP2;ratioP2
74328;SDS011;62745;51.060;13.786;2024-02-23T00:00:27;4.45;;;1.95;;
74328;SDS011;62745;51.060;13.786;2024-02-23T00:02:53;5.55;;;1.55;;
74328;SDS011;62745;51.060;13.786;2024-02-23T00:05:22;2.95;;;1.52;;
74328;SDS011;62745;51.060;13.786;2024-02-23T00:07:49;3.47;;;1.73;;
74328;SDS011;62745;51.060;13.786;2024-02-23T00:10:15;3.47;;;1.75;;
74328;SDS011;62745;51.060;13.786;2024-02-23T00:12:43;3.00;;;1.70;;
74328;SDS011;62745;51.060;13.786;2024-02-23T00:15:13;3.67;;;1.92;;
74328;SDS011;62745;51.060;13.786;2024-02-23T00:17:40;3.22;;;1.90;;
74328;SDS011;62745;51.060;13.786;2024-02-23T00:20:08;3.40;;;1.80;;
74328;SDS011;62745;51.060;13.786;2024-02-23T00:22:37;3.15;;;1.67;;
74328;SDS011;62745;51.060;13.786;2024-02-23T00:25:04;3.25;;;1.80;;
74328;SDS011;62745;51.060;13.786;2024-02-23T00:27:31;3.35;;;1.80;;
74328;SDS011;62745;51.060;13.786;2024-02-23T00:29:57;3.83;;;1.85;;
74328;SDS011;62745;51.060;13.786;2024-02-23T00:32:24;3.88;;;1.95;;
74328;SDS011;62745;51.060;13.786;2024-02-23T00:34:50;3.47;;;2.08;;
74328;SDS011;62745;51.060;13.786;2024-02-23T00:37:17;2.95;;;1.70;;
74328;SDS011;62745;51.060;13.786;2024-02-23T00:39:43;3.90;;;1.88;;
74328;SDS011;62745;51.060;13.786;2024-02-23T00:42:10;5.32;;;2.50;;
74328;SDS011;62745;51.060;13.786;2024-02-23T00:44:36;4.50;;;2.28;;
74328;SDS011;62745;51.060;13.786;2024-02-23T00:47:03;3.50;;;2.10;;
74328;SDS011;62745;51.060;13.786;2024-02-23T00:49:30;3.40;;;1.85;;
74328;SDS011;62745;51.060;13.786;2024-02-23T00:51:57;3.45;;;1.67;;
74328;SDS011;62745;51.060;13.786;2024-02-23T00:54:23;3.63;;;1.73;;
74328;SDS011;62745;51.060;13.786;2024-02-23T00:56:50;6.78;;;1.58;;
74328;SDS011;62745;51.060;13.786;2024-02-23T00:59:20;4.65;;;1.95;;
74328;SDS011;62745;51.060;13.786;2024-02-23T01:01:47;2.60;;;1.50;;
74328;SDS011;62745;51.060;13.786;2024-02-23T01:04:14;3.15;;;1.42;;
74328;SDS011;62745;51.060;13.786;2024-02-23T01:06:40;2.00;;;0.95;;
74328;SDS011;62745;51.060;13.786;2024-02-23T01:09:07;2.15;;;0.93;;
74328;SDS011;62745;51.060;13.786;2024-02-23T01:11:33;1.38;;;0.68;;
74328;SDS011;62745;51.060;13.786;2024-02-23T01:14:00;0.77;;;0.50;;
74328;SDS011;62745;51.060;13.786;2024-02-23T01:16:27;1.33;;;0.55;;
74328;SDS011;62745;51.060;13.786;2024-02-23T01:18:53;0.77;;;0.40;;
74328;SDS011;62745;51.060;13.786;2024-02-23T01:21:20;1.42;;;0.70;;
74328;SDS011;62745;51.060;13.786;2024-02-23T01:23:46;1.35;;;0.50;;
74328;SDS011;62745;51.060;13.786;2024-02-23T01:26:13;0.90;;;0.43;;
74328;SDS011;62745;51.060;13.786;2024-02-23T01:28:39;0.57;;;0.32;;
74328;SDS011;62745;51.060;13.786;2024-02-23T01:31:09;0.60;;;0.30;;
74328;SDS011;62745;51.060;13.786;2024-02-23T01:33:39;3.55;;;0.85;;
74328;SDS011;62745;51.060;13.786;2024-02-23T01:36:06;1.50;;;0.60;;
74328;SDS011;62745;51.060;13.786;2024-02-23T01:38:34;0.50;;;0.50;;
74328;SDS011;62745;51.060;13.786;2024-02-23T01:41:00;1.10;;;0.50;;
74328;SDS011;62745;51.060;13.786;2024-02-23T01:43:27;1.52;;;0.50;;
74328;SDS011;62745;51.060;13.786;2024-02-23T01:45:54;1.35;;;0.35;;
74328;SDS011;62745;51.060;13.786;2024-02-23T01:48:20;1.38;;;0.60;;
74328;SDS011;62745;51.060;13.786;2024-02-23T01:50:47;1.58;;;0.65;;
74328;SDS011;62745;51.060;13.786;2024-02-23T01:53:14;0.60;;;0.40;;
74328;SDS011;62745;51.060;13.786;2024-02-23T01:55:41;1.02;;;0.50;;
74328;SDS011;62745;51.060;13.786;2024-02-23T01:58:10;1.23;;;0.68;;
74328;SDS011;62745;51.060;13.786;2024-02-23T02:00:36;0.88;;;0.40;;
74328;SDS011;62745;51.060;13.786;2024-02-23T02:03:03;0.65;;;0.40;;
74328;SDS011;62745;51.060;13.786;2024-02-23T02:05:35;0.93;;;0.40;;
74328;SDS011;62745;51.060;13.786;2024-02-23T02:08:03;1.10;;;0.40;;
74328;SDS011;62745;51.060;13.786;2024-02-23T02:10:30;1.08;;;0.55;;
74328;SDS011;62745;51.060;13.786;2024-02-23T02:13:04;0.40;;;0.38;;
74328;SDS011;62745;51.060;13.786;2024-02-23T02:15:32;0.93;;;0.40;;
74328;SDS011;62745;51.060;13.786;2024-02-23T02:17:58;1.33;;;0.68;;
74328;SDS011;62745;51.060;13.786;2024-02-23T02:20:25;0.80;;;0.52;;
74328;SDS011;62745;51.060;13.786;2024-02-23T02:22:53;0.82;;;0.50;;
74328;SDS011;62745;51.060;13.786;2024-02-23T02:25:23;0.45;;;0.30;;
74328;SDS011;62745;51.060;13.786;2024-02-23T02:27:50;1.33;;;0.63;;
74328;SDS011;62745;51.060;13.786;2024-02-23T02:30:16;0.50;;;0.30;;
74328;SDS011;62745;51.060;13.786;2024-02-23T02:32:43;0.68;;;0.50;;
74328;SDS011;62745;51.060;13.786;2024-02-23T02:35:21;2.15;;;0.60;;
74328;SDS011;62745;51.060;13.786;2024-02-23T02:38:11;1.38;;;0.65;;
74328;SDS011;62745;51.060;13.786;2024-02-23T02:40:38;0.90;;;0.60;;
74328;SDS011;62745;51.060;13.786;2024-02-23T02:43:04;0.75;;;0.30;;
74328;SDS011;62745;51.060;13.786;2024-02-23T02:45:31;1.73;;;0.75;;
74328;SDS011;62745;51.060;13.786;2024-02-23T02:47:59;0.82;;;0.40;;
74328;SDS011;62745;51.060;13.786;2024-02-23T02:50:27;2.03;;;0.70;;
74328;SDS011;62745;51.060;13.786;2024-02-23T02:53:10;1.63;;;0.60;;
74328;SDS011;62745;51.060;13.786;2024-02-23T02:55:41;1.20;;;0.50;;
74328;SDS011;62745;51.060;13.786;2024-02-23T02:58:14;1.38;;;0.88;;
74328;SDS011;62745;51.060;13.786;2024-02-23T03:00:43;0.43;;;0.32;;
74328;SDS011;62745;51.060;13.786;2024-02-23T03:03:10;0.80;;;0.40;;
74328;SDS011;62745;51.060;13.786;2024-02-23T03:05:41;0.90;;;0.43;;
74328;SDS011;62745;51.060;13.786;2024-02-23T03:08:08;1.33;;;0.60;;
74328;SDS011;62745;51.060;13.786;2024-02-23T03:10:35;0.60;;;0.32;;
74328;SDS011;62745;51.060;13.786;2024-02-23T03:13:02;1.48;;;0.43;;
74328;SDS011;62745;51.060;13.786;2024-02-23T03:15:30;0.65;;;0.47;;
74328;SDS011;62745;51.060;13.786;2024-02-23T03:18:01;1.05;;;0.50;;
74328;SDS011;62745;51.060;13.786;2024-02-23T03:20:28;1.10;;;0.60;;
74328;SDS011;62745;51.060;13.786;2024-02-23T03:23:00;0.47;;;0.32;;
74328;SDS011;62745;51.060;13.786;2024-02-23T03:25:29;1.38;;;0.40;;
74328;SDS011;62745;51.060;13.786;2024-02-23T03:27:56;0.98;;;0.50;;
74328;SDS011;62745;51.060;13.786;2024-02-23T03:30:22;1.30;;;0.50;;
74328;SDS011;62745;51.060;13.786;2024-02-23T03:32:49;2.25;;;0.63;;
74328;SDS011;62745;51.060;13.786;2024-02-23T03:35:17;0.50;;;0.30;;
74328;SDS011;62745;51.060;13.786;2024-02-23T03:37:44;0.80;;;0.60;;
74328;SDS011;62745;51.060;13.786;2024-02-23T03:40:11;0.40;;;0.40;;
74328;SDS011;62745;51.060;13.786;2024-02-23T03:42:41;2.28;;;0.70;;
74328;SDS011;62745;51.060;13.786;2024-02-23T03:45:09;0.10;;;0.10;;
74328;SDS011;62745;51.060;13.786;2024-02-23T03:47:42;0.75;;;0.43;;
74328;SDS011;62745;51.060;13.786;2024-02-23T03:50:09;2.08;;;0.50;;
74328;SDS011;62745;51.060;13.786;2024-02-23T03:52:54;1.02;;;0.52;;
74328;SDS011;62745;51.060;13.786;2024-02-23T03:57:48;0.68;;;0.40;;
74328;SDS011;62745;51.060;13.786;2024-02-23T04:00:17;1.60;;;0.50;;
74328;SDS011;62745;51.060;13.786;2024-02-23T04:02:49;2.10;;;0.60;;
74328;SDS011;62745;51.060;13.786;2024-02-23T04:05:15;0.90;;;0.50;;
74328;SDS011;62745;51.060;13.786;2024-02-23T04:07:42;1.55;;;0.45;;
74328;SDS011;62745;51.060;13.786;2024-02-23T04:10:09;1.27;;;0.60;;
74328;SDS011;62745;51.060;13.786;2024-02-23T04:12:39;0.30;;;0.30;;
74328;SDS011;62745;51.060;13.786;2024-02-23T04:15:08;1.23;;;0.50;;
74328;SDS011;62745;51.060;13.786;2024-02-23T04:17:34;2.10;;;0.90;;
74328;SDS011;62745;51.060;13.786;2024-02-23T04:20:05;2.63;;;0.50;;
74328;SDS011;62745;51.060;13.786;2024-02-23T04:22:33;1.83;;;0.40;;
74328;SDS011;62745;51.060;13.786;2024-02-23T04:25:00;2.15;;;0.43;;
74328;SDS011;62745;51.060;13.786;2024-02-23T04:27:26;0.50;;;0.40;;
74328;SDS011;62745;51.060;13.786;2024-02-23T04:29:53;1.23;;;0.55;;
74328;SDS011;62745;51.060;13.786;2024-02-23T04:34:53;1.75;;;0.30;;
74328;SDS011;62745;51.060;13.786;2024-02-23T04:37:20;0.68;;;0.30;;
74328;SDS011;62745;51.060;13.786;2024-02-23T04:39:46;0.80;;;0.30;;
74328;SDS011;62745;51.060;13.786;2024-02-23T04:42:13;0.47;;;0.40;;
74328;SDS011;62745;51.060;13.786;2024-02-23T04:44:41;1.30;;;0.30;;
74328;SDS011;62745;51.060;13.786;2024-02-23T04:47:08;0.70;;;0.20;;
74328;SDS011;62745;51.060;13.786;2024-02-23T04:49:35;1.40;;;0.60;;
74328;SDS011;62745;51.060;13.786;2024-02-23T04:52:05;1.10;;;0.30;;
74328;SDS011;62745;51.060;13.786;2024-02-23T04:54:32;1.73;;;0.38;;
74328;SDS011;62745;51.060;13.786;2024-02-23T04:56:58;0.35;;;0.28;;
74328;SDS011;62745;51.060;13.786;2024-02-23T04:59:28;0.70;;;0.50;;
74328;SDS011;62745;51.060;13.786;2024-02-23T05:02:00;1.08;;;0.40;;
74328;SDS011;62745;51.060;13.786;2024-02-23T05:04:27;0.52;;;0.35;;
74328;SDS011;62745;51.060;13.786;2024-02-23T05:06:56;0.93;;;0.30;;
74328;SDS011;62745;51.060;13.786;2024-02-23T05:09:32;1.85;;;0.50;;
74328;SDS011;62745;51.060;13.786;2024-02-23T05:12:01;0.63;;;0.30;;
74328;SDS011;62745;51.060;13.786;2024-02-23T05:14:27;0.75;;;0.40;;
74328;SDS011;62745;51.060;13.786;2024-02-23T05:17:00;2.63;;;0.52;;
74328;SDS011;62745;51.060;13.786;2024-02-23T05:19:26;1.00;;;0.65;;
74328;SDS011;62745;51.060;13.786;2024-02-23T05:21:53;2.30;;;0.50;;
74328;SDS011;62745;51.060;13.786;2024-02-23T05:24:19;2.50;;;0.50;;
74328;SDS011;62745;51.060;13.786;2024-02-23T05:26:46;1.77;;;0.50;;
74328;SDS011;62745;51.060;13.786;2024-02-23T05:29:13;0.47;;;0.22;;
74328;SDS011;62745;51.060;13.786;2024-02-23T05:31:47;2.28;;;0.60;;
74328;SDS011;62745;51.060;13.786;2024-02-23T05:34:15;2.08;;;0.80;;
74328;SDS011;62745;51.060;13.786;2024-02-23T05:36:42;0.77;;;0.43;;
74328;SDS011;62745;51.060;13.786;2024-02-23T05:39:11;0.73;;;0.30;;
74328;SDS011;62745;51.060;13.786;2024-02-23T05:41:39;0.70;;;0.43;;
74328;SDS011;62745;51.060;13.786;2024-02-23T05:44:05;1.40;;;0.40;;
74328;SDS011;62745;51.060;13.786;2024-02-23T05:46:33;0.95;;;0.40;;
74328;SDS011;62745;51.060;13.786;2024-02-23T05:49:00;1.23;;;0.50;;
74328;SDS011;62745;51.060;13.786;2024-02-23T05:51:30;1.05;;;0.38;;
74328;SDS011;62745;51.060;13.786;2024-02-23T05:56:24;1.40;;;0.40;;
74328;SDS011;62745;51.060;13.786;2024-02-23T05:58:51;0.57;;;0.30;;
74328;SDS011;62745;51.060;13.786;2024-02-23T06:01:18;1.38;;;0.43;;
74328;SDS011;62745;51.060;13.786;2024-02-23T06:03:45;1.10;;;0.43;;
74328;SDS011;62745;51.060;13.786;2024-02-23T06:06:12;1.00;;;0.50;;
74328;SDS011;62745;51.060;13.786;2024-02-23T06:08:38;0.88;;;0.55;;
74328;SDS011;62745;51.060;13.786;2024-02-23T06:11:05;0.47;;;0.25;;
74328;SDS011;62745;51.060;13.786;2024-02-23T06:13:32;0.73;;;0.20;;
74328;SDS011;62745;51.060;13.786;2024-02-23T06:15:59;1.58;;;0.60;;
74328;SDS011;62745;51.060;13.786;2024-02-23T06:18:26;1.40;;;0.60;;
74328;SDS011;62745;51.060;13.786;2024-02-23T06:20:52;1.58;;;0.32;;
74328;SDS011;62745;51.060;13.786;2024-02-23T06:23:19;2.00;;;0.40;;
74328;SDS011;62745;51.060;13.786;2024-02-23T06:25:45;0.90;;;0.35;;
74328;SDS011;62745;51.060;13.786;2024-02-23T06:28:12;2.70;;;0.60;;
74328;SDS011;62745;51.060;13.786;2024-02-23T06:30:39;3.97;;;0.68;;
74328;SDS011;62745;51.060;13.786;2024-02-23T06:33:05;3.58;;;0.65;;
74328;SDS011;62745;51.060;13.786;2024-02-23T06:35:32;2.63;;;0.68;;
74328;SDS011;62745;51.060;13.786;2024-02-23T06:37:58;0.60;;;0.40;;
74328;SDS011;62745;51.060;13.786;2024-02-23T06:40:25;3.22;;;0.80;;
74328;SDS011;62745;51.060;13.786;2024-02-23T06:43:06;2.60;;;0.82;;
74328;SDS011;62745;51.060;13.786;2024-02-23T06:45:32;4.18;;;0.60;;
74328;SDS011;62745;51.060;13.786;2024-02-23T06:47:59;1.55;;;0.50;;
74328;SDS011;62745;51.060;13.786;2024-02-23T06:50:25;2.05;;;0.80;;
74328;SDS011;62745;51.060;13.786;2024-02-23T06:52:52;1.23;;;0.52;;
74328;SDS011;62745;51.060;13.786;2024-02-23T06:55:18;1.85;;;0.40;;
74328;SDS011;62745;51.060;13.786;2024-02-23T06:57:46;1.27;;;0.50;;
74328;SDS011;62745;51.060;13.786;2024-02-23T07:00:13;2.50;;;0.68;;
74328;SDS011;62745;51.060;13.786;2024-02-23T07:02:40;1.52;;;0.60;;
74328;SDS011;62745;51.060;13.786;2024-02-23T07:05:06;1.75;;;0.55;;
74328;SDS011;62745;51.060;13.786;2024-02-23T07:07:34;2.35;;;0.60;;
74328;SDS011;62745;51.060;13.786;2024-02-23T07:10:01;1.40;;;0.57;;
74328;SDS011;62745;51.060;13.786;2024-02-23T07:12:28;1.48;;;0.65;;
74328;SDS011;62745;51.060;13.786;2024-02-23T07:14:55;3.20;;;0.60;;
74328;SDS011;62745;51.060;13.786;2024-02-23T07:17:22;1.27;;;0.45;;
74328;SDS011;62745;51.060;13.786;2024-02-23T07:19:49;2.25;;;0.43;;
74328;SDS011;62745;51.060;13.786;2024-02-23T07:22:17;2.17;;;0.50;;
74328;SDS011;62745;51.060;13.786;2024-02-23T07:24:49;3.45;;;1.02;;
74328;SDS011;62745;51.060;13.786;2024-02-23T07:27:16;1.58;;;0.50;;
74328;SDS011;62745;51.060;13.786;2024-02-23T07:29:42;1.83;;;0.77;;
74328;SDS011;62745;51.060;13.786;2024-02-23T07:32:09;2.00;;;0.60;;
74328;SDS011;62745;51.060;13.786;2024-02-23T07:34:36;2.72;;;0.50;;
74328;SDS011;62745;51.060;13.786;2024-02-23T07:37:03;2.05;;;0.68;;
74328;SDS011;62745;51.060;13.786;2024-02-23T07:39:30;0.57;;;0.40;;
74328;SDS011;62745;51.060;13.786;2024-02-23T07:41:56;2.90;;;0.52;;
74328;SDS011;62745;51.060;13.786;2024-02-23T07:44:23;0.60;;;0.40;;
74328;SDS011;62745;51.060;13.786;2024-02-23T07:46:51;1.38;;;0.57;;
74328;SDS011;62745;51.060;13.786;2024-02-23T07:49:20;1.50;;;0.50;;
74328;SDS011;62745;51.060;13.786;2024-02-23T07:51:48;2.08;;;0.63;;
74328;SDS011;62745;51.060;13.786;2024-02-23T07:54:14;3.30;;;0.60;;
74328;SDS011;62745;51.060;13.786;2024-02-23T07:56:41;2.25;;;0.80;;
74328;SDS011;62745;51.060;13.786;2024-02-23T07:59:08;3.47;;;0.90;;
74328;SDS011;62745;51.060;13.786;2024-02-23T08:01:34;2.42;;;0.70;;
74328;SDS011;62745;51.060;13.786;2024-02-23T08:04:01;2.80;;;0.70;;
74328;SDS011;62745;51.060;13.786;2024-02-23T08:06:27;2.40;;;0.60;;
74328;SDS011;62745;51.060;13.786;2024-02-23T08:08:54;0.80;;;0.40;;
74328;SDS011;62745;51.060;13.786;2024-02-23T08:11:21;1.90;;;0.60;;
74328;SDS011;62745;51.060;13.786;2024-02-23T08:13:48;1.83;;;0.75;;
74328;SDS011;62745;51.060;13.786;2024-02-23T08:16:18;2.10;;;0.90;;
74328;SDS011;62745;51.060;13.786;2024-02-23T08:18:44;1.00;;;0.40;;
74328;SDS011;62745;51.060;13.786;2024-02-23T08:21:11;2.85;;;0.60;;
74328;SDS011;62745;51.060;13.786;2024-02-23T08:23:37;1.92;;;0.52;;
74328;SDS011;62745;51.060;13.786;2024-02-23T08:26:05;0.70;;;0.47;;
74328;SDS011;62745;51.060;13.786;2024-02-23T08:28:32;1.65;;;0.52;;
74328;SDS011;62745;51.060;13.786;2024-02-23T08:30:58;2.25;;;0.73;;
74328;SDS011;62745;51.060;13.786;2024-02-23T08:33:25;1.17;;;0.50;;
74328;SDS011;62745;51.060;13.786;2024-02-23T08:35:51;2.05;;;0.40;;
74328;SDS011;62745;51.060;13.786;2024-02-23T08:38:18;1.55;;;0.55;;
74328;SDS011;62745;51.060;13.786;2024-02-23T08:40:45;0.35;;;0.30;;
74328;SDS011;62745;51.060;13.786;2024-02-23T08:43:11;2.33;;;0.70;;
74328;SDS011;62745;51.060;13.786;2024-02-23T08:45:39;0.45;;;0.32;;
74328;SDS011;62745;51.060;13.786;2024-02-23T08:48:06;0.73;;;0.20;;
74328;SDS011;62745;51.060;13.786;2024-02-23T08:50:33;1.60;;;0.47;;
74328;SDS011;62745;51.060;13.786;2024-02-23T08:53:00;1.70;;;0.60;;
74328;SDS011;62745;51.060;13.786;2024-02-23T08:55:27;2.05;;;0.40;;
74328;SDS011;62745;51.060;13.786;2024-02-23T08:57:53;1.52;;;0.60;;
74328;SDS011;62745;51.060;13.786;2024-02-23T09:00:20;1.42;;;0.88;;
74328;SDS011;62745;51.060;13.786;2024-02-23T09:02:46;0.77;;;0.32;;
74328;SDS011;62745;51.060;13.786;2024-02-23T09:05:13;1.90;;;0.40;;
74328;SDS011;62745;51.060;13.786;2024-02-23T09:07:39;2.05;;;0.47;;
74328;SDS011;62745;51.060;13.786;2024-02-23T09:10:07;3.00;;;1.05;;
74328;SDS011;62745;51.060;13.786;2024-02-23T09:12:34;1.45;;;0.45;;
74328;SDS011;62745;51.060;13.786;2024-02-23T09:15:01;1.88;;;0.70;;
74328;SDS011;62745;51.060;13.786;2024-02-23T09:17:28;1.40;;;0.50;;
74328;SDS011;62745;51.060;13.786;2024-02-23T09:19:54;1.15;;;0.60;;
74328;SDS011;62745;51.060;13.786;2024-02-23T09:22:21;1.08;;;0.43;;
74328;SDS011;62745;51.060;13.786;2024-02-23T09:24:47;2.60;;;0.70;;
74328;SDS011;62745;51.060;13.786;2024-02-23T09:27:13;1.63;;;0.38;;
74328;SDS011;62745;51.060;13.786;2024-02-23T09:29:41;0.75;;;0.32;;
74328;SDS011;62745;51.060;13.786;2024-02-23T09:32:08;2.65;;;0.88;;
74328;SDS011;62745;51.060;13.786;2024-02-23T09:34:35;1.27;;;0.73;;
74328;SDS011;62745;51.060;13.786;2024-02-23T09:37:01;3.15;;;1.00;;
74328;SDS011;62745;51.060;13.786;2024-02-23T09:39:28;0.50;;;0.28;;
74328;SDS011;62745;51.060;13.786;2024-02-23T09:41:56;2.95;;;0.85;;
74328;SDS011;62745;51.060;13.786;2024-02-23T09:44:23;3.30;;;1.10;;
74328;SDS011;62745;51.060;13.786;2024-02-23T09:46:49;0.90;;;0.50;;
74328;SDS011;62745;51.060;13.786;2024-02-23T09:49:16;0.88;;;0.40;;
74328;SDS011;62745;51.060;13.786;2024-02-23T09:51:43;1.77;;;0.60;;
74328;SDS011;62745;51.060;13.786;2024-02-23T09:54:10;1.33;;;0.70;;
74328;SDS011;62745;51.060;13.786;2024-02-23T09:56:36;2.53;;;0.70;;
74328;SDS011;62745;51.060;13.786;2024-02-23T09:59:04;1.50;;;0.57;;
74328;SDS011;62745;51.060;13.786;2024-02-23T10:01:31;2.58;;;0.68;;
74328;SDS011;62745;51.060;13.786;2024-02-23T10:04:02;2.28;;;0.80;;
74328;SDS011;62745;51.060;13.786;2024-02-23T10:06:31;4.07;;;0.77;;
74328;SDS011;62745;51.060;13.786;2024-02-23T10:08:58;1.35;;;0.50;;
74328;SDS011;62745;51.060;13.786;2024-02-23T10:11:24;2.45;;;1.00;;
74328;SDS011;62745;51.060;13.786;2024-02-23T10:13:54;3.00;;;0.80;;
74328;SDS011;62745;51.060;13.786;2024-02-23T10:16:21;1.23;;;0.35;;
74328;SDS011;62745;51.060;13.786;2024-02-23T10:18:48;3.00;;;0.73;;
74328;SDS011;62745;51.060;13.786;2024-02-23T10:21:15;2.88;;;0.63;;
74328;SDS011;62745;51.060;13.786;2024-02-23T10:23:45;1.55;;;0.50;;
74328;SDS011;62745;51.060;13.786;2024-02-23T10:26:13;0.95;;;0.40;;
74328;SDS011;62745;51.060;13.786;2024-02-23T10:28:45;1.90;;;0.55;;
74328;SDS011;62745;51.060;13.786;2024-02-23T10:31:12;2.35;;;0.63;;
74328;SDS011;62745;51.060;13.786;2024-02-23T10:33:39;0.90;;;0.40;;
74328;SDS011;62745;51.060;13.786;2024-02-23T10:36:06;1.75;;;0.60;;
74328;SDS011;62745;51.060;13.786;2024-02-23T10:38:37;2.42;;;0.38;;
74328;SDS011;62745;51.060;13.786;2024-02-23T10:41:06;1.70;;;0.70;;
74328;SDS011;62745;51.060;13.786;2024-02-23T10:43:45;1.90;;;0.88;;
74328;SDS011;62745;51.060;13.786;2024-02-23T10:46:14;3.55;;;0.82;;
74328;SDS011;62745;51.060;13.786;2024-02-23T10:48:41;2.53;;;0.45;;
74328;SDS011;62745;51.060;13.786;2024-02-23T10:51:10;3.45;;;0.60;;
74328;SDS011;62745;51.060;13.786;2024-02-23T10:53:40;1.48;;;0.47;;
74328;SDS011;62745;51.060;13.786;2024-02-23T10:56:07;1.42;;;0.50;;
74328;SDS011;62745;51.060;13.786;2024-02-23T10:58:33;2.42;;;0.68;;
74328;SDS011;62745;51.060;13.786;2024-02-23T11:01:04;0.75;;;0.50;;
74328;SDS011;62745;51.060;13.786;2024-02-23T11:03:34;1.13;;;0.50;;
74328;SDS011;62745;51.060;13.786;2024-02-23T11:06:05;2.72;;;0.32;;
74328;SDS011;62745;51.060;13.786;2024-02-23T11:08:33;2.55;;;0.52;;
74328;SDS011;62745;51.060;13.786;2024-02-23T11:11:09;1.92;;;0.40;;
74328;SDS011;62745;51.060;13.786;2024-02-23T11:13:37;2.50;;;0.50;;
74328;SDS011;62745;51.060;13.786;2024-02-23T11:16:04;1.85;;;0.40;;
74328;SDS011;62745;51.060;13.786;2024-02-23T11:18:36;1.55;;;0.73;;
74328;SDS011;62745;51.060;13.786;2024-02-23T11:21:04;0.85;;;0.40;;
74328;SDS011;62745;51.060;13.786;2024-02-23T11:23:41;1.35;;;0.20;;
74328;SDS011;62745;51.060;13.786;2024-02-23T11:26:14;2.35;;;0.70;;
74328;SDS011;62745;51.060;13.786;2024-02-23T11:28:41;1.75;;;0.77;;
74328;SDS011;62745;51.060;13.786;2024-02-23T11:31:20;2.15;;;0.60;;
74328;SDS011;62745;51.060;13.786;2024-02-23T11:33:53;0.63;;;0.50;;
74328;SDS011;62745;51.060;13.786;2024-02-23T11:36:23;1.33;;;0.50;;
74328;SDS011;62745;51.060;13.786;2024-02-23T11:38:56;0.70;;;0.30;;
74328;SDS011;62745;51.060;13.786;2024-02-23T11:41:23;3.80;;;0.55;;
74328;SDS011;62745;51.060;13.786;2024-02-23T11:43:51;1.67;;;0.70;;
74328;SDS011;62745;51.060;13.786;2024-02-23T11:46:19;1.98;;;0.40;;
74328;SDS011;62745;51.060;13.786;2024-02-23T11:48:46;0.65;;;0.32;;
74328;SDS011;62745;51.060;13.786;2024-02-23T11:51:13;0.90;;;0.40;;
74328;SDS011;62745;51.060;13.786;2024-02-23T11:53:41;1.67;;;0.60;;
74328;SDS011;62745;51.060;13.786;2024-02-23T11:56:08;2.35;;;0.45;;
74328;SDS011;62745;51.060;13.786;2024-02-23T11:58:35;0.68;;;0.45;;
74328;SDS011;62745;51.060;13.786;2024-02-23T12:01:02;2.15;;;0.70;;
74328;SDS011;62745;51.060;13.786;2024-02-23T12:03:29;1.30;;;0.70;;
74328;SDS011;62745;51.060;13.786;2024-02-23T12:05:57;2.25;;;0.60;;
74328;SDS011;62745;51.060;13.786;2024-02-23T12:08:25;2.53;;;0.85;;
74328;SDS011;62745;51.060;13.786;2024-02-23T12:10:55;3.50;;;0.65;;
74328;SDS011;62745;51.060;13.786;2024-02-23T12:13:23;1.25;;;0.57;;
74328;SDS011;62745;51.060;13.786;2024-02-23T12:15:52;2.22;;;1.15;;
74328;SDS011;62745;51.060;13.786;2024-02-23T12:18:22;1.65;;;0.50;;
74328;SDS011;62745;51.060;13.786;2024-02-23T12:21:05;0.88;;;0.50;;
74328;SDS011;62745;51.060;13.786;2024-02-23T12:23:39;1.30;;;0.50;;
74328;SDS011;62745;51.060;13.786;2024-02-23T12:26:06;0.88;;;0.50;;
74328;SDS011;62745;51.060;13.786;2024-02-23T12:28:33;2.00;;;0.80;;
74328;SDS011;62745;51.060;13.786;2024-02-23T12:31:00;1.27;;;0.38;;
74328;SDS011;62745;51.060;13.786;2024-02-23T12:33:28;1.98;;;0.60;;
74328;SDS011;62745;51.060;13.786;2024-02-23T12:35:58;1.17;;;0.38;;
74328;SDS011;62745;51.060;13.786;2024-02-23T12:38:25;1.42;;;0.68;;
74328;SDS011;62745;51.060;13.786;2024-02-23T12:40:52;1.88;;;0.40;;
74328;SDS011;62745;51.060;13.786;2024-02-23T12:43:19;1.85;;;0.70;;
74328;SDS011;62745;51.060;13.786;2024-02-23T12:45:53;2.05;;;0.70;;
74328;SDS011;62745;51.060;13.786;2024-02-23T12:48:21;1.75;;;0.50;;
74328;SDS011;62745;51.060;13.786;2024-02-23T12:50:48;0.85;;;0.40;;
74328;SDS011;62745;51.060;13.786;2024-02-23T12:53:59;1.20;;;0.40;;
74328;SDS011;62745;51.060;13.786;2024-02-23T12:56:06;0.98;;;0.65;;
74328;SDS011;62745;51.060;13.786;2024-02-23T12:58:38;1.27;;;0.40;;
74328;SDS011;62745;51.060;13.786;2024-02-23T13:01:05;1.45;;;0.30;;
74328;SDS011;62745;51.060;13.786;2024-02-23T13:03:33;1.10;;;0.57;;
74328;SDS011;62745;51.060;13.786;2024-02-23T13:06:01;2.58;;;0.80;;
74328;SDS011;62745;51.060;13.786;2024-02-23T13:08:28;1.33;;;0.70;;
74328;SDS011;62745;51.060;13.786;2024-02-23T13:10:56;3.25;;;0.70;;
74328;SDS011;62745;51.060;13.786;2024-02-23T13:13:23;1.90;;;0.70;;
74328;SDS011;62745;51.060;13.786;2024-02-23T13:15:51;1.50;;;0.60;;
74328;SDS011;62745;51.060;13.786;2024-02-23T13:18:18;1.83;;;0.68;;
74328;SDS011;62745;51.060;13.786;2024-02-23T13:20:45;3.05;;;0.68;;
74328;SDS011;62745;51.060;13.786;2024-02-23T13:23:12;1.65;;;0.80;;
74328;SDS011;62745;51.060;13.786;2024-02-23T13:25:39;1.55;;;0.52;;
74328;SDS011;62745;51.060;13.786;2024-02-23T13:28:06;1.40;;;0.55;;
74328;SDS011;62745;51.060;13.786;2024-02-23T13:30:34;1.15;;;0.45;;
74328;SDS011;62745;51.060;13.786;2024-02-23T13:33:02;1.42;;;0.55;;
74328;SDS011;62745;51.060;13.786;2024-02-23T13:35:29;1.13;;;0.57;;
74328;SDS011;62745;51.060;13.786;2024-02-23T13:37:56;3.83;;;0.65;;
74328;SDS011;62745;51.060;13.786;2024-02-23T13:40:24;2.03;;;0.80;;
74328;SDS011;62745;51.060;13.786;2024-02-23T13:42:50;2.05;;;0.60;;
74328;SDS011;62745;51.060;13.786;2024-02-23T13:45:18;1.10;;;0.50;;
74328;SDS011;62745;51.060;13.786;2024-02-23T13:47:55;3.20;;;0.50;;
74328;SDS011;62745;51.060;13.786;2024-02-23T13:50:29;1.45;;;0.60;;
74328;SDS011;62745;51.060;13.786;2024-02-23T13:52:55;2.80;;;0.90;;
74328;SDS011;62745;51.060;13.786;2024-02-23T13:55:23;1.83;;;0.73;;
74328;SDS011;62745;51.060;13.786;2024-02-23T13:57:49;1.27;;;0.40;;
74328;SDS011;62745;51.060;13.786;2024-02-23T14:00:17;2.20;;;0.77;;
74328;SDS011;62745;51.060;13.786;2024-02-23T14:02:45;2.00;;;0.52;;
74328;SDS011;62745;51.060;13.786;2024-02-23T14:05:12;0.35;;;0.20;;
74328;SDS011;62745;51.060;13.786;2024-02-23T14:07:39;0.80;;;0.57;;
74328;SDS011;62745;51.060;13.786;2024-02-23T14:10:06;2.05;;;0.70;;
74328;SDS011;62745;51.060;13.786;2024-02-23T14:12:33;1.58;;;0.50;;
74328;SDS011;62745;51.060;13.786;2024-02-23T14:15:00;1.02;;;0.50;;
74328;SDS011;62745;51.060;13.786;2024-02-23T14:17:27;2.17;;;0.63;;
74328;SDS011;62745;51.060;13.786;2024-02-23T14:19:54;2.80;;;0.70;;
74328;SDS011;62745;51.060;13.786;2024-02-23T14:22:21;1.30;;;0.70;;
74328;SDS011;62745;51.060;13.786;2024-02-23T14:24:47;1.98;;;0.70;;
74328;SDS011;62745;51.060;13.786;2024-02-23T14:27:14;1.98;;;0.60;;
74328;SDS011;62745;51.060;13.786;2024-02-23T14:29:40;1.88;;;0.80;;
74328;SDS011;62745;51.060;13.786;2024-02-23T14:32:07;1.88;;;0.80;;
74328;SDS011;62745;51.060;13.786;2024-02-23T14:34:33;1.52;;;0.85;;
74328;SDS011;62745;51.060;13.786;2024-02-23T14:37:01;1.63;;;0.80;;
74328;SDS011;62745;51.060;13.786;2024-02-23T14:39:27;1.77;;;0.85;;
74328;SDS011;62745;51.060;13.786;2024-02-23T14:41:54;2.25;;;0.68;;
74328;SDS011;62745;51.060;13.786;2024-02-23T14:44:20;1.63;;;0.73;;